Terminal Aerodrome Forecast
Issued by NWS Glasgow, MT

Home | Current Version | Previous Version | Text Only | Print | Product List | Glossary On
Versions: 1 2 3 4 5 6 7 8 9 10 11 12 13 14 15 16 17 18 19 20
412
FTUS45 KGGW 111133
TAFGGW
TAF
KGGW 111133Z 1112/1212 29005KT P6SM SCT100
     FM111800 31004KT P6SM BKN040
     FM112300 33004KT P6SM VCSH OVC020
     FM120200 34007KT P6SM -SN OVC025
     FM120700 33008KT P6SM VCSH OVC025=

USA.gov is the U.S. government's official web portal to all federal, state and local government web resources and services.